Time;durP1;ratioP1;P1;durP2;ratioP2;P2;SDS_P1;SDS_P2;PMS_P1;PMS_P2;Temp;Humidity;BMP_temperature;BMP_pressure;BME280_temperature;BME280_humidity;BME280_pressure;Samples;Min_cycle;Max_cycle;Signal;HPM_P1;HPM_P2
2022/06/07 00:03:16;;;;;;;90.38;51.03;;;;;;;;;;10279163;28;20051;-68
2022/06/07 00:08:20;;;;;;;89.10;50.90;;;;;;;;;;10278890;28;20070;-68
2022/06/07 00:13:22;;;;;;;91.03;50.83;;;;;;;;;;10291724;28;20043;-67
2022/06/07 00:18:24;;;;;;;84.82;47.53;;;;;;;;;;10291449;28;20054;-68
2022/06/07 00:23:28;;;;;;;92.35;51.05;;;;;;;;;;10291715;28;20314;-68
2022/06/07 00:28:31;;;;;;;82.55;46.75;;;;;;;;;;10286859;28;20086;-68
2022/06/07 00:58:19;;;;;;;;;;;;;;;;;;10276555;28;20047;-67
2022/06/07 01:03:39;;;;;;;71.35;37.65;;;;;;;;;;10275825;29;19945;-68
2022/06/07 01:14:05;;;;;;;70.40;38.55;;;;;;;;;;10290289;28;20057;-68
2022/06/07 01:19:07;;;;;;;68.17;37.27;;;;;;;;;;10289590;28;20058;-68
2022/06/07 01:24:14;;;;;;;65.18;37.25;;;;;;;;;;10289838;28;20058;-67
2022/06/07 01:29:16;;;;;;;60.85;34.30;;;;;;;;;;10282528;28;20247;-67
2022/06/07 01:34:19;;;;;;;57.97;32.28;;;;;;;;;;10289293;28;20045;-68
2022/06/07 01:44:47;;;;;;;44.47;26.15;;;;;;;;;;10288204;28;20066;-68
2022/06/07 01:49:49;;;;;;;53.05;29.75;;;;;;;;;;10289171;28;20053;-68
2022/06/07 01:54:53;;;;;;;52.97;28.63;;;;;;;;;;10287930;28;20050;-68
2022/06/07 01:59:55;;;;;;;55.35;29.88;;;;;;;;;;10287782;28;20066;-67
2022/06/07 02:04:58;;;;;;;53.05;30.52;;;;;;;;;;10288445;28;20063;-67
2022/06/07 02:10:02;;;;;;;48.67;28.98;;;;;;;;;;10287936;28;20055;-68
2022/06/07 02:15:05;;;;;;;51.30;29.50;;;;;;;;;;10274347;29;20051;-68
2022/06/07 02:20:09;;;;;;;52.83;29.80;;;;;;;;;;10286970;28;20055;-68
2022/06/07 02:25:12;;;;;;;47.30;28.58;;;;;;;;;;10287503;28;20043;-68
2022/06/07 02:30:14;;;;;;;46.10;25.90;;;;;;;;;;10277114;28;20055;-67
2022/06/07 02:35:18;;;;;;;41.90;23.70;;;;;;;;;;10274690;28;20365;-67
2022/06/07 02:40:21;;;;;;;34.90;19.95;;;;;;;;;;10273313;28;20071;-68
2022/06/07 02:45:24;;;;;;;33.10;19.38;;;;;;;;;;10286595;28;20123;-68
2022/06/07 02:50:26;;;;;;;26.42;16.38;;;;;;;;;;10287011;28;20047;-68
2022/06/07 02:55:30;;;;;;;24.40;15.93;;;;;;;;;;10286069;28;20047;-68
2022/06/07 03:00:32;;;;;;;23.97;14.47;;;;;;;;;;10286815;28;20054;-68
2022/06/07 03:05:35;;;;;;;25.02;12.38;;;;;;;;;;10286682;28;20051;-68
2022/06/07 03:10:41;;;;;;;20.30;11.88;;;;;;;;;;10286934;28;20125;-68
2022/06/07 03:15:47;;;;;;;18.95;11.68;;;;;;;;;;10274911;29;20054;-68
2022/06/07 03:20:51;;;;;;;14.00;8.93;;;;;;;;;;10286953;28;20047;-69
2022/06/07 03:26:05;;;;;;;15.00;9.32;;;;;;;;;;10286252;28;20049;-69
2022/06/07 03:31:12;;;;;;;17.52;11.35;;;;;;;;;;10272257;28;20269;-68
2022/06/07 03:36:19;;;;;;;21.92;13.30;;;;;;;;;;10270584;28;20122;-67
2022/06/07 03:41:25;;;;;;;21.95;12.20;;;;;;;;;;10284522;28;20066;-68
2022/06/07 03:46:29;;;;;;;20.13;12.23;;;;;;;;;;10284626;28;20051;-71
2022/06/07 03:51:32;;;;;;;23.13;12.38;;;;;;;;;;10284970;28;20046;-67
2022/06/07 03:56:36;;;;;;;19.27;11.73;;;;;;;;;;10283923;28;20069;-68
2022/06/07 04:01:38;;;;;;;;;;;;;;;;;;10284253;28;20059;-68
2022/06/07 04:08:10;;;;;;;18.88;9.93;;;;;;;;;;10284159;28;19946;-68
2022/06/07 04:12:08;;;;;;;13.43;8.65;;;;;;;;;;10272775;28;20067;-68
2022/06/07 04:17:12;;;;;;;15.55;8.07;;;;;;;;;;10284673;28;20051;-67
2022/06/07 04:22:14;;;;;;;15.82;9.27;;;;;;;;;;10271706;28;20126;-69
2022/06/07 04:27:18;;;;;;;13.43;7.85;;;;;;;;;;10283281;28;20090;-68
2022/06/07 04:32:22;;;;;;;11.82;7.65;;;;;;;;;;10271662;28;20330;-68
2022/06/07 04:37:24;;;;;;;9.02;6.97;;;;;;;;;;10291410;28;20039;-67
2022/06/07 04:42:28;;;;;;;11.95;7.22;;;;;;;;;;10290365;28;20230;-68
2022/06/07 04:47:31;;;;;;;10.75;6.10;;;;;;;;;;10291054;28;20047;-68
2022/06/07 04:52:34;;;;;;;9.73;6.30;;;;;;;;;;10277097;28;20354;-68
2022/06/07 04:57:37;;;;;;;9.43;6.22;;;;;;;;;;10289643;28;20121;-68
2022/06/07 05:02:40;;;;;;;10.30;6.10;;;;;;;;;;10290689;28;20058;-69
2022/06/07 05:07:42;;;;;;;9.32;5.22;;;;;;;;;;10289763;28;20106;-69
2022/06/07 05:12:46;;;;;;;6.55;4.97;;;;;;;;;;10286948;28;20067;-69
2022/06/07 05:17:49;;;;;;;9.55;5.13;;;;;;;;;;10278213;28;20050;-69
2022/06/07 05:22:51;;;;;;;13.70;5.05;;;;;;;;;;10285923;28;20286;-68
2022/06/07 05:27:57;;;;;;;8.90;4.80;;;;;;;;;;10269689;28;20228;-69
2022/06/07 05:32:59;;;;;;;6.10;4.28;;;;;;;;;;10264049;29;20054;-69
2022/06/07 05:38:02;;;;;;;7.43;4.43;;;;;;;;;;10279477;28;20330;-69
2022/06/07 05:43:06;;;;;;;7.35;4.63;;;;;;;;;;10278836;28;20074;-69
2022/06/07 05:48:09;;;;;;;4.82;3.50;;;;;;;;;;10270371;28;20063;-69
2022/06/07 05:53:11;;;;;;;5.05;3.75;;;;;;;;;;10278110;28;20059;-69
2022/06/07 05:58:15;;;;;;;5.65;4.25;;;;;;;;;;10264710;29;20047;-69
2022/06/07 06:03:18;;;;;;;7.15;4.68;;;;;;;;;;10268631;28;20331;-68
2022/06/07 06:13:41;;;;;;;6.75;4.60;;;;;;;;;;10265897;29;20055;-69
2022/06/07 06:18:46;;;;;;;5.78;4.20;;;;;;;;;;10272124;29;20322;-68
2022/06/07 06:23:49;;;;;;;6.40;4.25;;;;;;;;;;10271848;29;20051;-69
2022/06/07 06:28:53;;;;;;;4.95;3.95;;;;;;;;;;10263336;29;20059;-70
2022/06/07 06:33:56;;;;;;;4.70;4.03;;;;;;;;;;10271277;28;20077;-68
2022/06/07 06:38:59;;;;;;;9.15;4.72;;;;;;;;;;10256310;29;20324;-69
2022/06/07 06:44:04;;;;;;;4.47;3.70;;;;;;;;;;10259767;29;20059;-68
2022/06/07 06:49:07;;;;;;;5.33;3.97;;;;;;;;;;10260532;29;20062;-68
2022/06/07 06:54:12;;;;;;;5.18;3.97;;;;;;;;;;10275016;28;20046;-69
2022/06/07 06:59:16;;;;;;;5.82;3.97;;;;;;;;;;10277836;28;20043;-68
2022/06/07 07:04:20;;;;;;;5.13;3.88;;;;;;;;;;10283758;28;20105;-70
2022/06/07 07:09:25;;;;;;;4.78;4.20;;;;;;;;;;10275596;28;20113;-69
2022/06/07 07:14:29;;;;;;;5.25;3.95;;;;;;;;;;10283723;28;20266;-69
2022/06/07 07:19:31;;;;;;;4.75;3.67;;;;;;;;;;10275240;28;20074;-68
2022/06/07 07:24:33;;;;;;;6.45;5.47;;;;;;;;;;10283432;28;20043;-69
2022/06/07 07:29:38;;;;;;;11.02;6.43;;;;;;;;;;10258042;29;20066;-70
2022/06/07 07:34:41;;;;;;;31.88;11.60;;;;;;;;;;10282398;28;20050;-70
2022/06/07 07:39:43;;;;;;;12.65;6.65;;;;;;;;;;10258169;28;20365;-69
2022/06/07 07:44:48;;;;;;;3.20;3.10;;;;;;;;;;10270192;28;20047;-69
2022/06/07 07:49:50;;;;;;;9.60;9.20;;;;;;;;;;10256301;28;20145;-68
2022/06/07 07:54:52;;;;;;;19.17;18.27;;;;;;;;;;10268084;29;20118;-69
2022/06/07 07:59:56;;;;;;;8.60;8.30;;;;;;;;;;10274919;28;20299;-69
2022/06/07 08:04:58;;;;;;;8.32;8.02;;;;;;;;;;10269135;29;20071;-68
2022/06/07 08:10:02;;;;;;;25.15;23.85;;;;;;;;;;10271982;28;20339;-70
2022/06/07 08:15:07;;;;;;;35.70;33.70;;;;;;;;;;10275359;28;20044;-69
2022/06/07 08:20:11;;;;;;;43.67;41.17;;;;;;;;;;10267663;28;20050;-69
2022/06/07 08:25:17;;;;;;;40.15;37.85;;;;;;;;;;10273452;28;20118;-69
2022/06/07 08:30:21;;;;;;;51.13;48.03;;;;;;;;;;10272164;28;20075;-69
2022/06/07 08:40:45;;;;;;;81.70;76.20;;;;;;;;;;10268621;29;20305;-71
2022/06/07 08:45:49;;;;;;;59.75;55.65;;;;;;;;;;10288740;28;20039;-69
2022/06/07 08:51:01;;;;;;;73.00;67.90;;;;;;;;;;10280943;28;20044;-69
2022/06/07 08:56:15;;;;;;;53.10;49.50;;;;;;;;;;10277254;28;20039;-68
2022/06/07 09:01:27;;;;;;;73.25;68.53;;;;;;;;;;10289425;28;20055;-69
2022/06/07 09:06:33;;;;;;;40.40;38.10;;;;;;;;;;10285368;28;20039;-69
2022/06/07 09:17:04;;;;;;;46.20;43.50;;;;;;;;;;10288051;28;20039;-68
2022/06/07 09:22:14;;;;;;;44.75;42.15;;;;;;;;;;10280082;28;20322;-68
2022/06/07 09:27:19;;;;;;;21.75;20.65;;;;;;;;;;10285594;28;20299;-69
2022/06/07 09:32:27;;;;;;;17.88;16.98;;;;;;;;;;10274308;28;20051;-69
2022/06/07 09:37:33;;;;;;;21.77;20.67;;;;;;;;;;10271355;28;20094;-68
2022/06/07 09:42:35;;;;;;;19.10;18.20;;;;;;;;;;10279050;28;20090;-69
2022/06/07 09:47:39;;;;;;;4.72;4.63;;;;;;;;;;10271798;28;20165;-68
2022/06/07 09:52:48;;;;;;;0.00;0.00;;;;;;;;;;10269045;28;20055;-69
2022/06/07 09:58:02;;;;;;;0.00;0.00;;;;;;;;;;10277194;28;20047;-67
2022/06/07 10:03:32;;;;;;;2.72;2.50;;;;;;;;;;10274110;28;20058;-68
2022/06/07 10:08:56;;;;;;;19.10;11.00;;;;;;;;;;10285695;28;20342;-67
2022/06/07 10:14:09;;;;;;;18.73;11.73;;;;;;;;;;10241779;28;20087;-68
2022/06/07 10:19:32;;;;;;;22.20;12.70;;;;;;;;;;10264221;28;20114;-69
2022/06/07 10:24:43;;;;;;;21.67;13.13;;;;;;;;;;10279451;28;20067;-68
2022/06/07 10:29:56;;;;;;;;;;;;;;;;;;10269028;28;20059;-67
2022/06/07 10:35:11;;;;;;;24.23;13.18;;;;;;;;;;10284729;28;19926;-69
2022/06/07 10:40:19;;;;;;;30.27;13.48;;;;;;;;;;10283951;28;20158;-68
2022/06/07 10:45:26;;;;;;;19.85;10.43;;;;;;;;;;10264563;29;20051;-68
2022/06/07 10:50:35;;;;;;;19.52;10.80;;;;;;;;;;10283381;28;20039;-68
2022/06/07 10:55:45;;;;;;;18.83;9.30;;;;;;;;;;10284218;28;20043;-69
2022/06/07 11:00:51;;;;;;;23.90;11.43;;;;;;;;;;10283740;28;20075;-68
2022/06/07 11:11:24;;;;;;;32.40;11.23;;;;;;;;;;10277898;28;20105;-68
2022/06/07 11:16:34;;;;;;;40.17;12.52;;;;;;;;;;10283032;28;20047;-70
2022/06/07 11:21:44;;;;;;;21.15;8.68;;;;;;;;;;10283103;28;20047;-68
2022/06/07 11:27:17;;;;;;;15.98;7.00;;;;;;;;;;10274252;28;20291;-68
2022/06/07 11:32:54;;;;;;;58.90;17.67;;;;;;;;;;10255290;29;20058;-68
2022/06/07 11:37:58;;;;;;;9.93;5.20;;;;;;;;;;10253762;28;20059;-68
2022/06/07 11:43:00;;;;;;;7.55;4.82;;;;;;;;;;10276188;28;20064;-68
2022/06/07 11:48:14;;;;;;;11.63;5.40;;;;;;;;;;10287097;28;20059;-69
2022/06/07 11:53:28;;;;;;;11.15;6.07;;;;;;;;;;10283332;28;20347;-70
2022/06/07 11:58:53;;;;;;;11.85;4.93;;;;;;;;;;10277204;28;20043;-70
2022/06/07 12:04:22;;;;;;;8.77;4.43;;;;;;;;;;10282315;28;20039;-68
2022/06/07 12:09:28;;;;;;;6.57;3.15;;;;;;;;;;10268050;29;20109;-68
2022/06/07 12:14:38;;;;;;;9.57;5.50;;;;;;;;;;10283108;28;20051;-69
2022/06/07 12:19:46;;;;;;;11.60;4.10;;;;;;;;;;10290107;28;20074;-69
2022/06/07 12:24:56;;;;;;;9.15;3.05;;;;;;;;;;10287886;28;20051;-68
2022/06/07 12:30:03;;;;;;;8.02;3.22;;;;;;;;;;10276169;28;20361;-67
2022/06/07 12:35:16;;;;;;;13.30;4.20;;;;;;;;;;10289121;28;20093;-68
2022/06/07 12:40:34;;;;;;;10.13;3.58;;;;;;;;;;10276385;28;20110;-69
2022/06/07 12:45:37;;;;;;;7.28;3.45;;;;;;;;;;10288854;28;20043;-69
2022/06/07 12:50:42;;;;;;;8.15;3.55;;;;;;;;;;10220313;29;20059;-68
2022/06/07 12:55:54;;;;;;;5.15;3.10;;;;;;;;;;10279242;28;20051;-68
2022/06/07 13:00:56;;;;;;;10.02;3.30;;;;;;;;;;10289023;28;20069;-68
2022/06/07 13:06:02;;;;;;;6.63;2.90;;;;;;;;;;10273150;28;20074;-68
2022/06/07 13:11:12;;;;;;;3.42;2.00;;;;;;;;;;10287857;28;20054;-69
2022/06/07 13:16:30;;;;;;;10.48;3.63;;;;;;;;;;10281543;28;20046;-69
2022/06/07 13:21:35;;;;;;;5.43;3.30;;;;;;;;;;10284582;28;20077;-68
2022/06/07 13:26:45;;;;;;;11.82;2.78;;;;;;;;;;10273842;28;20054;-68
2022/06/07 13:31:57;;;;;;;10.13;3.08;;;;;;;;;;10273589;28;20062;-70
2022/06/07 13:37:16;;;;;;;3.05;2.20;;;;;;;;;;10283015;28;20238;-72
2022/06/07 13:42:24;;;;;;;2.28;1.58;;;;;;;;;;10273162;28;20055;-70
2022/06/07 13:47:33;;;;;;;5.35;2.47;;;;;;;;;;10285320;28;20114;-70
2022/06/07 13:58:02;;;;;;;2.78;1.85;;;;;;;;;;10257876;28;20067;-69
2022/06/07 14:03:14;;;;;;;5.70;2.40;;;;;;;;;;10275795;28;20058;-69
2022/06/07 14:08:17;;;;;;;2.78;1.83;;;;;;;;;;10271767;28;20039;-68
2022/06/07 14:13:21;;;;;;;3.28;2.25;;;;;;;;;;10277248;28;20062;-69
2022/06/07 14:18:24;;;;;;;2.55;2.10;;;;;;;;;;10262511;29;20055;-68
2022/06/07 14:23:27;;;;;;;3.28;2.15;;;;;;;;;;10259977;28;20047;-68
2022/06/07 14:28:31;;;;;;;3.67;2.45;;;;;;;;;;10270319;28;20118;-69
2022/06/07 14:33:34;;;;;;;4.00;2.13;;;;;;;;;;10264422;28;20051;-69
2022/06/07 14:38:37;;;;;;;3.28;2.03;;;;;;;;;;10267941;29;20051;-68
2022/06/07 14:43:41;;;;;;;9.98;3.55;;;;;;;;;;10282586;28;20253;-69
2022/06/07 14:48:48;;;;;;;8.77;2.05;;;;;;;;;;10271526;29;20040;-68
2022/06/07 14:53:52;;;;;;;4.63;2.72;;;;;;;;;;10258791;28;20320;-69
2022/06/07 14:58:56;;;;;;;6.93;2.97;;;;;;;;;;10261900;28;20058;-68
2022/06/07 15:03:58;;;;;;;3.92;2.70;;;;;;;;;;10284228;28;20090;-69
2022/06/07 15:09:02;;;;;;;8.88;2.95;;;;;;;;;;10283095;28;20045;-69
2022/06/07 15:14:06;;;;;;;6.80;2.40;;;;;;;;;;10272020;28;20055;-69
2022/06/07 15:19:13;;;;;;;5.10;2.28;;;;;;;;;;10285507;28;20043;-70
2022/06/07 15:24:17;;;;;;;5.00;1.73;;;;;;;;;;10285778;28;20059;-70
2022/06/07 15:29:49;;;;;;;11.43;2.47;;;;;;;;;;10266703;28;20055;-69
2022/06/07 15:34:45;;;;;;;7.43;1.80;;;;;;;;;;10271840;29;20055;-69
2022/06/07 15:39:47;;;;;;;3.85;2.80;;;;;;;;;;10250090;29;20054;-67
2022/06/07 15:44:51;;;;;;;3.03;1.98;;;;;;;;;;10269441;28;20043;-74
2022/06/07 15:49:54;;;;;;;5.68;2.33;;;;;;;;;;10259857;28;20051;-71
2022/06/07 15:54:56;;;;;;;3.08;1.75;;;;;;;;;;10283936;28;20050;-72
2022/06/07 16:00:00;;;;;;;5.22;2.10;;;;;;;;;;10284591;28;20039;-71
2022/06/07 16:05:02;;;;;;;2.30;1.95;;;;;;;;;;10280503;28;20062;-71
2022/06/07 16:10:05;;;;;;;4.90;2.40;;;;;;;;;;10283508;28;20051;-71
2022/06/07 16:15:12;;;;;;;6.15;2.78;;;;;;;;;;10274946;28;20035;-68
2022/06/07 16:20:16;;;;;;;8.88;3.17;;;;;;;;;;10276172;28;20067;-70
2022/06/07 16:25:19;;;;;;;3.65;2.40;;;;;;;;;;10284942;28;20079;-71
2022/06/07 16:35:44;;;;;;;3.53;2.75;;;;;;;;;;10286665;28;20081;-71
2022/06/07 16:40:47;;;;;;;4.33;3.20;;;;;;;;;;10291057;28;20291;-67
2022/06/07 16:45:51;;;;;;;5.85;3.35;;;;;;;;;;10277756;28;20297;-73
2022/06/07 16:50:53;;;;;;;79.95;12.10;;;;;;;;;;10291831;28;20067;-69
2022/06/07 16:55:57;;;;;;;11.40;4.10;;;;;;;;;;10289252;28;20058;-75
2022/06/07 17:01:01;;;;;;;7.10;3.90;;;;;;;;;;10290980;28;20055;-68
2022/06/07 17:06:03;;;;;;;59.63;14.70;;;;;;;;;;10275805;28;20103;-73
2022/06/07 17:11:06;;;;;;;7.22;4.28;;;;;;;;;;10287711;28;20043;-67
2022/06/07 17:16:10;;;;;;;5.22;3.75;;;;;;;;;;10288997;28;20047;-69
2022/06/07 17:21:13;;;;;;;8.18;4.55;;;;;;;;;;10289882;28;20238;-69
2022/06/07 17:26:18;;;;;;;7.65;4.43;;;;;;;;;;10288261;28;20094;-69
2022/06/07 17:31:22;;;;;;;8.77;5.13;;;;;;;;;;10276887;28;20159;-68
2022/06/07 17:36:25;;;;;;;7.88;5.13;;;;;;;;;;10290067;28;20047;-67
2022/06/07 17:41:28;;;;;;;8.85;5.25;;;;;;;;;;10288888;28;20051;-69
2022/06/07 17:46:32;;;;;;;17.65;6.00;;;;;;;;;;10280500;28;20327;-68
2022/06/07 17:51:34;;;;;;;8.90;5.78;;;;;;;;;;10289425;28;20043;-70
2022/06/07 17:56:37;;;;;;;11.40;5.97;;;;;;;;;;10288455;28;20050;-69
2022/06/07 18:01:41;;;;;;;8.95;5.43;;;;;;;;;;10275371;28;20051;-69
2022/06/07 18:06:43;;;;;;;;;;;;;;;;;;10275787;28;20062;-69
2022/06/07 18:11:45;;;;;;;8.48;5.13;;;;;;;;;;10288236;28;19942;-69
2022/06/07 18:16:50;;;;;;;7.00;5.03;;;;;;;;;;10289670;28;20051;-68
2022/06/07 18:22:02;;;;;;;;;;;;;;;;;;10278825;28;20271;-69
2022/06/07 18:27:05;;;;;;;4.03;3.38;;;;;;;;;;10287197;28;19930;-69
2022/06/07 18:32:15;;;;;;;5.35;3.58;;;;;;;;;;10275740;28;20070;-69
2022/06/07 18:37:18;;;;;;;4.85;3.75;;;;;;;;;;10276984;28;20051;-69
2022/06/07 18:42:21;;;;;;;9.82;4.20;;;;;;;;;;10285086;28;20054;-69
2022/06/07 18:47:27;;;;;;;6.60;4.15;;;;;;;;;;10287487;28;20039;-68
2022/06/07 18:52:30;;;;;;;6.03;4.18;;;;;;;;;;10285729;28;20043;-68
2022/06/07 18:57:33;;;;;;;5.88;3.78;;;;;;;;;;10287157;28;20098;-68
2022/06/07 19:02:37;;;;;;;11.05;4.32;;;;;;;;;;10285883;28;20051;-69
2022/06/07 19:07:39;;;;;;;3.40;3.05;;;;;;;;;;10270784;28;20343;-69
2022/06/07 19:12:43;;;;;;;4.30;3.38;;;;;;;;;;10270714;28;20062;-68
2022/06/07 19:17:48;;;;;;;6.40;4.00;;;;;;;;;;10285806;28;20082;-68
2022/06/07 19:22:50;;;;;;;4.10;3.65;;;;;;;;;;10285724;28;20338;-69
2022/06/07 19:27:53;;;;;;;7.40;4.10;;;;;;;;;;10281735;28;20043;-68
2022/06/07 19:32:58;;;;;;;6.97;4.40;;;;;;;;;;10206738;29;20063;-68
2022/06/07 19:38:00;;;;;;;9.00;4.93;;;;;;;;;;10206470;29;20051;-68
2022/06/07 19:43:03;;;;;;;7.53;4.53;;;;;;;;;;10203247;29;20075;-68
2022/06/07 19:48:08;;;;;;;9.52;4.53;;;;;;;;;;10205675;29;20091;-68
2022/06/07 19:53:13;;;;;;;6.68;4.55;;;;;;;;;;10193422;29;20060;-67
2022/06/07 19:58:16;;;;;;;7.57;4.53;;;;;;;;;;10186879;29;20059;-68
2022/06/07 20:03:19;;;;;;;7.60;4.43;;;;;;;;;;10197826;29;20044;-68
2022/06/07 20:08:24;;;;;;;6.53;4.18;;;;;;;;;;10210480;29;20048;-69
2022/06/07 20:13:26;;;;;;;7.53;5.13;;;;;;;;;;10196555;29;20248;-68
2022/06/07 20:18:31;;;;;;;8.10;5.40;;;;;;;;;;10192823;29;20080;-68
2022/06/07 20:23:33;;;;;;;8.63;5.55;;;;;;;;;;10209461;29;20079;-68
2022/06/07 20:28:37;;;;;;;9.68;5.20;;;;;;;;;;10212980;29;20066;-67
2022/06/07 20:33:42;;;;;;;11.05;5.10;;;;;;;;;;10278415;28;20059;-68
2022/06/07 20:38:44;;;;;;;10.30;6.00;;;;;;;;;;10286351;28;20039;-66
2022/06/07 20:43:46;;;;;;;7.75;5.20;;;;;;;;;;10289840;28;20051;-68
2022/06/07 20:48:50;;;;;;;11.68;6.00;;;;;;;;;;10284192;28;20219;-68
2022/06/07 20:53:53;;;;;;;7.30;4.88;;;;;;;;;;10280497;28;20050;-67
2022/06/07 20:58:55;;;;;;;8.82;4.68;;;;;;;;;;10273753;28;20106;-68
2022/06/07 21:03:59;;;;;;;8.57;4.60;;;;;;;;;;10274827;29;20047;-68
2022/06/07 21:09:02;;;;;;;8.60;4.75;;;;;;;;;;10279337;28;20263;-67
2022/06/07 21:14:05;;;;;;;8.05;5.30;;;;;;;;;;10287038;28;20074;-69
2022/06/07 21:19:09;;;;;;;9.13;5.78;;;;;;;;;;10274030;28;20178;-68
2022/06/07 21:24:11;;;;;;;9.77;6.10;;;;;;;;;;10284471;28;20291;-68
2022/06/07 21:29:14;;;;;;;8.93;5.30;;;;;;;;;;10281537;28;20054;-68
2022/06/07 21:34:20;;;;;;;7.68;5.53;;;;;;;;;;10288514;28;20251;-67
2022/06/07 21:39:24;;;;;;;11.73;5.60;;;;;;;;;;10289684;28;20082;-67
2022/06/07 21:44:26;;;;;;;9.10;5.67;;;;;;;;;;10288885;28;20051;-69
2022/06/07 21:49:30;;;;;;;7.30;4.97;;;;;;;;;;10289255;28;20297;-67
2022/06/07 21:54:32;;;;;;;8.88;4.13;;;;;;;;;;10274894;28;20118;-68
2022/06/07 21:59:36;;;;;;;5.05;4.07;;;;;;;;;;10276283;29;20325;-68
2022/06/07 22:04:40;;;;;;;5.78;4.45;;;;;;;;;;10288146;28;20271;-67
2022/06/07 22:09:42;;;;;;;6.15;4.10;;;;;;;;;;10288172;28;20050;-66
2022/06/07 22:14:45;;;;;;;7.63;4.95;;;;;;;;;;10284786;28;20047;-67
2022/06/07 22:19:49;;;;;;;8.50;5.00;;;;;;;;;;10287476;28;20361;-67
2022/06/07 22:24:51;;;;;;;7.70;5.75;;;;;;;;;;10275327;28;20055;-68
2022/06/07 22:29:54;;;;;;;8.52;5.57;;;;;;;;;;10278185;28;20054;-68
2022/06/07 22:34:59;;;;;;;14.63;6.35;;;;;;;;;;10287841;28;20074;-68
2022/06/07 22:40:01;;;;;;;;;;;;;;;;;;10288237;28;20103;-68
2022/06/07 22:45:04;;;;;;;11.30;6.15;;;;;;;;;;10286055;28;20106;-67
2022/06/07 22:50:10;;;;;;;13.07;7.40;;;;;;;;;;10286675;28;20039;-68
2022/06/07 22:55:18;;;;;;;11.13;7.53;;;;;;;;;;10286959;28;20058;-67
2022/06/07 23:00:21;;;;;;;19.38;8.82;;;;;;;;;;10273181;28;20114;-67
2022/06/07 23:05:26;;;;;;;13.73;8.48;;;;;;;;;;10272448;28;20071;-68
2022/06/07 23:10:29;;;;;;;16.08;8.93;;;;;;;;;;10285232;28;20270;-68
2022/06/07 23:20:53;;;;;;;17.58;9.82;;;;;;;;;;10284616;28;20054;-68
2022/06/07 23:25:55;;;;;;;15.68;9.05;;;;;;;;;;10284844;28;20331;-68
2022/06/07 23:30:58;;;;;;;14.40;9.60;;;;;;;;;;10273197;28;20063;-68
2022/06/07 23:36:04;;;;;;;14.82;9.15;;;;;;;;;;10285170;28;20062;-67
2022/06/07 23:41:06;;;;;;;17.80;9.88;;;;;;;;;;10285113;28;20334;-67
2022/06/07 23:46:09;;;;;;;15.80;9.68;;;;;;;;;;10284654;28;20059;-67
2022/06/07 23:51:15;;;;;;;20.65;11.50;;;;;;;;;;10285056;28;20051;-68
2022/06/07 23:56:18;;;;;;;20.85;11.38;;;;;;;;;;10284294;28;20120;-68
